Aérodrome :
LOGIN :

S'inscrire | Disclaimer

   EN    FR    IT 

 










Légende :    VFR   VFR Marginal   IFR   IFR Intensif   IFR Très Intensif
Visi : 
Plafond : 
>= 8 km
>= 3000ft
5 à 8 km
1000 à 3000 ft
1500m à 5 km
500 à 1000 ft
800 à 1500m
200 à 500 ft
< 800m
< 200 ft
Symboles :   Orages  Brouillard  Fortes neiges  Fortes précipitations  Vent > 20 kt
SIGMETs :   Divers  Orages  Givrage  Turbulence  Onde Orograph.  Cendres Volcan.






- Altitude de l'aérodrome : 1460 ft


LSMA - Alpnach

DERNIER METAR :
  • 261120Z AUTO 21012KT 9999NDV SCT070 11/02 Q1007 RMK

METARs EXPIRÉS :
  • 261050Z AUTO VRB05KT 9999NDV SCT072 BKN100 12/02 Q1007 RMK
  • 261020Z AUTO VRB02KT 9999NDV FEW077 09/06 Q1008 RMK
  • 260950Z AUTO VRB02KT 9999NDV SCT059 SCT096 07/05 Q1008 RMK
  • 260920Z AUTO 00000KT 9999NDV FEW023 BKN052 BKN075 07/05 Q1 008 RMK
  • 260850Z AUTO 19003KT 160V220 9000NDV -RA FEW040 BKN046 OVC 055 06/05 Q1008 RERA RMK

Prévision TAF périmée.



MET'MAP, la Météo Aéronautique d'un coup d'oeil ! - Copyright ORBIFLY Décembre 2007 - Disclaimer

ORBIFLY MET'MAP TEAM :

Programmation & Développement : Alexandra Zaïnal
Sur une idée originale de : Baudouin d'Aumeries
Soutien technique & logistique : Manuel Goepfert
Assistance : Marc-Olivier Méhu




SOURCES & CREDITS :

   NOAA